Time;durP1;ratioP1;P1;durP2;ratioP2;P2;SDS_P1;SDS_P2;PMS_P1;PMS_P2;Temp;Humidity;BMP_temperature;BMP_pressure;BME280_temperature;BME280_humidity;BME280_pressure;Samples;Min_cycle;Max_cycle;Signal;HPM_P1;HPM_P2
2023/07/06 00:01:58;;;;;;;10.83;4.07;;;15.30;99.90;;;;;;5092984;28;20298;-82
2023/07/06 00:04:25;;;;;;;11.73;3.30;;;15.30;99.90;;;;;;5080410;28;20236;-82
2023/07/06 00:06:52;;;;;;;6.05;3.22;;;15.30;99.90;;;;;;5072558;28;20220;-82
2023/07/06 00:09:19;;;;;;;12.43;3.70;;;15.30;99.90;;;;;;5072343;28;20722;-80
2023/07/06 00:11:47;;;;;;;5.53;2.85;;;15.20;99.90;;;;;;5072751;28;20228;-80
2023/07/06 00:14:15;;;;;;;4.88;2.40;;;15.20;99.90;;;;;;5073063;28;20205;-81
2023/07/06 00:16:48;;;;;;;5.93;2.80;;;15.20;99.90;;;;;;5072688;28;20220;-82
2023/07/06 00:19:19;;;;;;;5.97;3.23;;;15.10;99.90;;;;;;5072426;28;20205;-83
2023/07/06 00:21:47;;;;;;;4.87;3.07;;;15.10;99.90;;;;;;5072529;28;20208;-81
2023/07/06 00:24:15;;;;;;;7.00;3.40;;;15.10;99.90;;;;;;5072942;28;20207;-83
2023/07/06 00:26:43;;;;;;;8.27;3.40;;;15.00;99.90;;;;;;5076154;28;20208;-82
2023/07/06 00:29:10;;;;;;;7.88;3.25;;;15.10;99.90;;;;;;5093064;28;20240;-82
2023/07/06 00:31:51;;;;;;;6.67;3.07;;;15.00;99.90;;;;;;5092917;28;20583;-83
2023/07/06 00:34:19;;;;;;;7.45;3.03;;;15.00;99.90;;;;;;5082559;28;20215;-82
2023/07/06 00:36:47;;;;;;;7.60;3.57;;;15.00;99.90;;;;;;5072375;28;20228;-82
2023/07/06 00:39:15;;;;;;;6.17;3.53;;;15.00;99.90;;;;;;5072893;28;20224;-83
2023/07/06 00:41:43;;;;;;;7.67;3.33;;;15.00;99.90;;;;;;5072811;28;20613;-83
2023/07/06 00:44:44;;;;;;;5.93;3.00;;;15.00;99.90;;;;;;5072404;28;20232;-82
2023/07/06 00:47:13;;;;;;;7.33;3.40;;;15.00;99.90;;;;;;5072500;28;20642;-82
2023/07/06 00:49:42;;;;;;;6.93;3.00;;;15.00;99.90;;;;;;5079449;28;20317;-83
2023/07/06 00:52:10;;;;;;;7.07;3.47;;;15.00;99.90;;;;;;5092850;28;20227;-82
2023/07/06 00:54:40;;;;;;;4.70;3.17;;;15.00;99.90;;;;;;5085077;28;20289;-83
2023/07/06 00:57:08;;;;;;;11.30;3.43;;;14.90;99.90;;;;;;5072274;28;20201;-82
2023/07/06 00:59:40;;;;;;;6.93;3.33;;;14.90;99.90;;;;;;5084165;28;20604;-81
2023/07/06 01:02:10;;;;;;;12.60;4.27;;;14.90;99.90;;;;;;5092855;28;20197;-82
2023/07/06 01:04:39;;;;;;;8.73;3.63;;;14.90;99.90;;;;;;5092594;28;20223;-83
2023/07/06 01:07:09;;;;;;;8.50;3.40;;;14.90;99.90;;;;;;5092358;28;20277;-81
2023/07/06 01:09:39;;;;;;;6.68;2.72;;;14.80;99.90;;;;;;5092866;28;20270;-83
2023/07/06 01:12:06;;;;;;;8.40;3.47;;;14.80;99.90;;;;;;5082178;28;20240;-83
2023/07/06 01:14:33;;;;;;;4.97;2.95;;;14.80;99.90;;;;;;5072341;28;20609;-81
2023/07/06 01:17:07;;;;;;;6.50;3.27;;;14.80;99.90;;;;;;5072142;28;20252;-82
2023/07/06 01:20:14;;;;;;;8.47;3.90;;;14.80;99.90;;;;;;5072082;28;20582;-80
2023/07/06 01:23:17;;;;;;;7.63;3.73;;;14.80;99.90;;;;;;5066800;28;20205;-80
2023/07/06 01:26:12;;;;;;;7.70;3.23;;;14.70;99.90;;;;;;5071654;28;20201;-81
2023/07/06 01:29:16;;;;;;;10.03;4.40;;;14.70;99.90;;;;;;5074140;28;20362;-82
2023/07/06 01:31:51;;;;;;;8.63;4.00;;;14.70;99.90;;;;;;5075464;28;20204;-81
2023/07/06 01:34:26;;;;;;;6.43;3.73;;;14.70;99.90;;;;;;5075582;28;20615;-81
2023/07/06 01:37:00;;;;;;;7.87;3.73;;;14.70;99.90;;;;;;5075730;28;20239;-80
2023/07/06 01:39:28;;;;;;;8.07;4.17;;;14.70;99.90;;;;;;5074824;28;20225;-82
2023/07/06 01:42:25;;;;;;;9.00;4.00;;;14.70;99.90;;;;;;5076062;28;20301;-82
2023/07/06 01:44:55;;;;;;;6.20;3.50;;;14.70;99.90;;;;;;5075709;28;20204;-82
2023/07/06 01:47:24;;;;;;;7.70;3.83;;;14.70;99.90;;;;;;5075036;28;20207;-82
2023/07/06 01:49:52;;;;;;;8.17;4.00;;;14.70;99.90;;;;;;5075052;28;20233;-81
2023/07/06 01:52:27;;;;;;;6.23;3.70;;;14.70;99.90;;;;;;5075192;28;20489;-82
2023/07/06 01:55:02;;;;;;;6.87;3.53;;;14.70;99.90;;;;;;5076260;28;20197;-82
2023/07/06 01:57:35;;;;;;;7.17;4.10;;;14.60;99.90;;;;;;5075686;28;20240;-82
2023/07/06 02:00:08;;;;;;;8.83;3.77;;;14.60;99.90;;;;;;5075150;28;20590;-81
2023/07/06 02:02:38;;;;;;;9.00;4.50;;;14.60;99.90;;;;;;5075113;28;20197;-81
2023/07/06 02:05:06;;;;;;;6.30;3.53;;;14.60;99.90;;;;;;5089462;28;20209;-82
2023/07/06 02:07:33;;;;;;;7.87;3.60;;;14.60;99.90;;;;;;5094907;28;20250;-82
2023/07/06 02:10:01;;;;;;;9.40;4.40;;;14.60;99.90;;;;;;5086800;28;20301;-83
2023/07/06 02:12:28;;;;;;;8.70;4.00;;;14.60;99.90;;;;;;5074982;28;20201;-83
2023/07/06 02:14:55;;;;;;;10.03;4.03;;;14.60;99.90;;;;;;5074796;28;20197;-82
2023/07/06 02:17:22;;;;;;;11.63;4.37;;;14.60;99.90;;;;;;5082603;28;20633;-81
2023/07/06 02:19:51;;;;;;;6.53;3.47;;;14.60;99.90;;;;;;5095156;28;20189;-83
2023/07/06 02:22:21;;;;;;;5.23;3.60;;;14.60;99.90;;;;;;5094776;28;20259;-81
2023/07/06 02:24:48;;;;;;;8.43;3.87;;;14.60;99.90;;;;;;5085804;28;20215;-83
2023/07/06 02:27:15;;;;;;;6.97;3.80;;;14.60;99.90;;;;;;5074832;28;20292;-82
2023/07/06 02:29:43;;;;;;;11.90;4.87;;;14.60;99.90;;;;;;5074273;28;20622;-80
2023/07/06 02:32:10;;;;;;;9.07;4.20;;;14.60;99.90;;;;;;5074875;28;20197;-82
2023/07/06 02:34:38;;;;;;;7.32;3.53;;;14.60;99.90;;;;;;5075173;28;20209;-82
2023/07/06 02:37:06;;;;;;;5.97;3.77;;;14.50;99.90;;;;;;5074828;28;20197;-81
2023/07/06 02:39:33;;;;;;;8.57;4.00;;;14.50;99.90;;;;;;5074190;28;20478;-81
2023/07/06 02:42:00;;;;;;;8.38;3.50;;;14.40;99.90;;;;;;5074041;28;20255;-82
2023/07/06 02:44:27;;;;;;;8.57;3.93;;;14.40;99.90;;;;;;5073918;28;20229;-81
2023/07/06 02:46:54;;;;;;;9.20;4.03;;;14.40;99.90;;;;;;5074264;28;20201;-82
2023/07/06 02:49:21;;;;;;;4.67;3.43;;;14.40;99.90;;;;;;5073362;28;20233;-80
2023/07/06 02:51:48;;;;;;;6.33;3.60;;;14.30;99.90;;;;;;5073947;28;20582;-83
2023/07/06 02:54:17;;;;;;;9.10;3.70;;;14.30;99.90;;;;;;5075265;28;20266;-83
2023/07/06 02:56:44;;;;;;;11.00;4.13;;;14.30;99.90;;;;;;5073788;28;20205;-81
2023/07/06 02:59:13;;;;;;;7.97;3.80;;;14.30;99.90;;;;;;5073793;28;20499;-82
2023/07/06 03:01:40;;;;;;;7.87;3.83;;;14.30;99.90;;;;;;5073890;28;20300;-81
2023/07/06 03:04:09;;;;;;;7.93;3.73;;;14.30;99.90;;;;;;5073440;28;20254;-82
2023/07/06 03:06:38;;;;;;;8.80;3.83;;;14.20;99.90;;;;;;5073770;28;20205;-80
2023/07/06 03:09:07;;;;;;;7.63;4.00;;;14.20;99.90;;;;;;5073394;28;20593;-81
2023/07/06 03:11:36;;;;;;;7.80;4.00;;;14.20;99.90;;;;;;5073023;28;20202;-81
2023/07/06 03:14:04;;;;;;;5.03;3.37;;;14.10;99.90;;;;;;5073484;28;20624;-82
2023/07/06 03:16:38;;;;;;;5.07;3.50;;;14.10;99.90;;;;;;5073480;28;20243;-81
2023/07/06 03:19:06;;;;;;;9.87;3.60;;;14.10;99.90;;;;;;5073129;28;20204;-80
2023/07/06 03:21:33;;;;;;;10.20;4.03;;;14.10;99.90;;;;;;5073083;28;20250;-82
2023/07/06 03:24:00;;;;;;;9.43;4.10;;;14.00;99.90;;;;;;5072548;28;20263;-81
2023/07/06 03:26:27;;;;;;;9.90;4.07;;;14.00;99.90;;;;;;5072934;28;20562;-81
2023/07/06 03:28:55;;;;;;;11.13;4.37;;;14.00;99.90;;;;;;5073046;28;20212;-81
2023/07/06 03:31:23;;;;;;;12.83;4.37;;;14.00;99.90;;;;;;5072643;28;20236;-81
2023/07/06 03:33:50;;;;;;;8.23;4.27;;;14.00;99.90;;;;;;5072763;28;20209;-80
2023/07/06 03:36:17;;;;;;;7.07;4.07;;;14.00;99.90;;;;;;5072276;28;20258;-83
2023/07/06 03:38:47;;;;;;;7.73;4.13;;;14.00;99.90;;;;;;5072103;28;20206;-81
2023/07/06 03:41:14;;;;;;;7.93;4.00;;;14.00;99.90;;;;;;5072796;28;20251;-80
2023/07/06 03:43:41;;;;;;;6.80;3.47;;;14.00;99.90;;;;;;5072925;28;20242;-80
2023/07/06 03:46:10;;;;;;;7.20;3.00;;;14.00;99.90;;;;;;5071924;28;20195;-81
2023/07/06 03:48:37;;;;;;;5.77;2.90;;;14.00;99.90;;;;;;5072810;28;20232;-81
2023/07/06 03:51:05;;;;;;;8.03;3.63;;;14.00;99.90;;;;;;5072206;28;20225;-81
2023/07/06 03:53:32;;;;;;;7.30;3.27;;;14.10;99.90;;;;;;5072884;28;20228;-83
2023/07/06 03:55:59;;;;;;;7.03;3.30;;;14.10;99.90;;;;;;5073698;28;20250;-81
2023/07/06 03:58:26;;;;;;;8.97;3.50;;;14.20;99.90;;;;;;5088220;28;20577;-82
2023/07/06 04:00:53;;;;;;;8.47;3.20;;;14.40;99.90;;;;;;5105521;28;20194;-80
2023/07/06 04:03:21;;;;;;;7.87;3.53;;;14.40;99.90;;;;;;5072777;28;20201;-82
2023/07/06 04:05:50;;;;;;;6.07;3.30;;;14.50;99.90;;;;;;5072267;28;20251;-82
2023/07/06 04:08:19;;;;;;;5.37;3.33;;;14.70;99.90;;;;;;5072607;28;20498;-83
2023/07/06 04:10:46;;;;;;;5.30;3.23;;;14.80;99.90;;;;;;5072660;28;20268;-82
2023/07/06 04:13:14;;;;;;;8.33;2.93;;;14.90;99.90;;;;;;5072530;28;20205;-83
2023/07/06 04:15:45;;;;;;;5.60;2.80;;;15.10;99.90;;;;;;5072181;28;20292;-82
2023/07/06 04:18:15;;;;;;;5.40;2.93;;;15.20;99.90;;;;;;5072603;28;20609;-81
2023/07/06 04:20:44;;;;;;;6.57;3.30;;;15.30;99.90;;;;;;5071988;28;20266;-83
2023/07/06 04:23:12;;;;;;;8.70;3.72;;;15.40;99.90;;;;;;5072523;28;20256;-83
2023/07/06 04:25:39;;;;;;;10.27;3.87;;;15.50;99.90;;;;;;5072245;28;20201;-84
2023/07/06 04:28:10;;;;;;;7.43;3.00;;;15.50;99.90;;;;;;5072307;28;20282;-82
2023/07/06 04:30:39;;;;;;;6.60;3.00;;;15.60;99.90;;;;;;5072820;28;20221;-83
2023/07/06 04:33:06;;;;;;;4.30;2.20;;;15.70;99.90;;;;;;5072446;28;20198;-81
2023/07/06 04:35:34;;;;;;;7.10;2.85;;;15.80;99.90;;;;;;5072423;28;20201;-80
2023/07/06 04:38:03;;;;;;;5.50;2.40;;;15.80;99.90;;;;;;5073081;28;20250;-82
2023/07/06 04:40:30;;;;;;;5.10;2.20;;;15.90;99.90;;;;;;5072318;28;20197;-82
2023/07/06 04:42:57;;;;;;;2.97;2.10;;;15.90;99.90;;;;;;5071882;28;20906;-82
2023/07/06 04:45:26;;;;;;;4.30;1.90;;;15.90;99.90;;;;;;5072522;28;20201;-82
2023/07/06 04:47:56;;;;;;;3.70;2.08;;;15.90;99.90;;;;;;5073114;28;20296;-82
2023/07/06 04:50:24;;;;;;;3.73;2.03;;;15.90;99.90;;;;;;5072856;28;20307;-82
2023/07/06 04:52:55;;;;;;;6.17;2.27;;;15.90;99.90;;;;;;5055259;28;20294;-80
2023/07/06 04:55:25;;;;;;;5.27;1.90;;;15.90;99.90;;;;;;5071945;28;20292;-83
2023/07/06 04:57:56;;;;;;;3.90;2.10;;;15.90;99.90;;;;;;5072190;28;20325;-83
2023/07/06 05:00:25;;;;;;;4.72;2.08;;;15.90;99.90;;;;;;5072584;28;20220;-82
2023/07/06 05:02:53;;;;;;;5.93;2.05;;;15.80;99.90;;;;;;5074444;28;20229;-84
2023/07/06 05:05:21;;;;;;;5.40;2.47;;;15.80;99.90;;;;;;5077072;28;20614;-82
2023/07/06 05:07:48;;;;;;;7.50;2.60;;;15.90;99.90;;;;;;5076289;28;20664;-83
2023/07/06 05:10:16;;;;;;;2.60;2.00;;;16.00;99.90;;;;;;5075659;28;20217;-83
2023/07/06 05:12:45;;;;;;;4.32;2.30;;;16.20;99.90;;;;;;5076397;28;20499;-83
2023/07/06 05:15:14;;;;;;;7.80;2.42;;;16.40;99.90;;;;;;5076329;28;20190;-83
2023/07/06 05:17:41;;;;;;;2.97;2.20;;;16.70;99.90;;;;;;5076027;28;20205;-81
2023/07/06 05:20:13;;;;;;;4.20;2.20;;;16.90;99.90;;;;;;5076085;28;20271;-82
2023/07/06 05:22:40;;;;;;;2.70;1.75;;;17.20;99.90;;;;;;5076372;28;20259;-82
2023/07/06 05:25:08;;;;;;;4.57;2.05;;;17.50;99.90;;;;;;5091983;28;20568;-82
2023/07/06 05:27:35;;;;;;;5.05;2.15;;;17.80;99.90;;;;;;5096654;28;20286;-82
2023/07/06 05:30:05;;;;;;;3.67;2.08;;;18.20;99.90;;;;;;5095799;28;20719;-83
2023/07/06 05:32:32;;;;;;;5.28;1.92;;;18.50;99.90;;;;;;5094870;28;20593;-83
2023/07/06 05:34:59;;;;;;;5.53;2.28;;;18.80;99.90;;;;;;5096387;28;20688;-83
2023/07/06 05:37:27;;;;;;;5.75;1.98;;;19.20;99.90;;;;;;5076818;28;20235;-84
2023/07/06 05:39:54;;;;;;;5.20;2.03;;;19.50;99.90;;;;;;5076233;28;20213;-84
2023/07/06 05:42:21;;;;;;;6.57;2.72;;;19.80;99.90;;;;;;5076066;28;20227;-84
2023/07/06 05:44:50;;;;;;;5.72;2.20;;;20.10;99.90;;;;;;5082287;28;20204;-83
2023/07/06 05:47:18;;;;;;;4.38;2.38;;;20.30;99.90;;;;;;5095607;28;20208;-81
2023/07/06 05:49:45;;;;;;;4.03;2.05;;;20.50;99.90;;;;;;5094373;28;20224;-82
2023/07/06 05:52:13;;;;;;;4.28;2.85;;;20.70;99.90;;;;;;5094861;28;20563;-81
2023/07/06 05:54:40;;;;;;;8.45;2.70;;;21.00;99.90;;;;;;5095301;28;20277;-81
2023/07/06 05:57:09;;;;;;;5.38;2.88;;;21.20;99.90;;;;;;5094699;28;20197;-84
2023/07/06 05:59:41;;;;;;;6.95;2.92;;;21.40;99.90;;;;;;5074499;28;20513;-83
2023/07/06 06:02:12;;;;;;;3.45;1.77;;;21.60;99.90;;;;;;5075437;28;20200;-82
2023/07/06 06:04:41;;;;;;;5.13;2.10;;;21.70;99.90;;;;;;5074785;28;20218;-81
2023/07/06 06:07:09;;;;;;;3.60;1.65;;;21.70;99.90;;;;;;5074765;28;20240;-82
2023/07/06 06:09:36;;;;;;;2.83;1.65;;;21.70;99.90;;;;;;5074433;28;20644;-82
2023/07/06 06:12:04;;;;;;;3.40;2.03;;;21.80;99.90;;;;;;5075502;28;20209;-83
2023/07/06 06:14:32;;;;;;;4.25;2.42;;;22.00;99.90;;;;;;5073996;28;20232;-84
2023/07/06 06:16:59;;;;;;;4.82;2.25;;;22.10;99.90;;;;;;5074886;28;20274;-84
2023/07/06 06:19:27;;;;;;;5.00;2.45;;;22.30;99.90;;;;;;5074686;28;20193;-81
2023/07/06 06:21:56;;;;;;;5.00;2.47;;;22.50;99.90;;;;;;5073954;28;20616;-81
2023/07/06 06:24:23;;;;;;;4.63;2.20;;;22.70;99.90;;;;;;5074323;28;20201;-82
2023/07/06 06:26:50;;;;;;;3.83;1.92;;;22.90;97.60;;;;;;5074079;28;20713;-83
2023/07/06 06:29:18;;;;;;;5.43;2.17;;;23.10;97.50;;;;;;5074434;28;20248;-84
2023/07/06 06:31:45;;;;;;;5.78;2.08;;;23.30;9.70;;;;;;5074471;28;20645;-82
2023/07/06 06:34:12;;;;;;;4.00;2.28;;;23.20;1.00;;;;;;5073998;28;20237;-83
2023/07/06 06:36:41;;;;;;;3.92;1.70;;;23.30;31.50;;;;;;5076984;28;20703;-84
2023/07/06 06:39:09;;;;;;;2.97;1.65;;;23.50;1.00;;;;;;5074035;28;20534;-84
2023/07/06 06:41:38;;;;;;;5.22;1.80;;;23.50;1.00;;;;;;5074003;28;20594;-83
2023/07/06 06:44:05;;;;;;;3.53;2.03;;;23.70;1.00;;;;;;5074179;28;20201;-83
2023/07/06 06:46:33;;;;;;;4.88;1.67;;;23.60;1.00;;;;;;5074894;28;20205;-84
2023/07/06 06:49:00;;;;;;;4.13;2.53;;;23.60;1.00;;;;;;5072927;28;20193;-83
2023/07/06 06:51:27;;;;;;;3.83;2.25;;;23.60;1.00;;;;;;5073575;28;20532;-84
2023/07/06 06:53:54;;;;;;;3.88;2.38;;;23.60;1.00;;;;;;5073249;28;20217;-84
2023/07/06 06:56:24;;;;;;;4.38;2.38;;;23.70;1.00;;;;;;5082122;28;20225;-86
2023/07/06 06:58:51;;;;;;;6.30;2.00;;;23.80;1.00;;;;;;5084227;28;20233;-83
2023/07/06 07:01:20;;;;;;;2.90;1.42;;;23.90;1.00;;;;;;5073448;28;20193;-82
2023/07/06 07:03:48;;;;;;;2.70;1.52;;;24.00;1.00;;;;;;5093236;28;20562;-84
2023/07/06 07:06:17;;;;;;;2.50;1.50;;;24.10;1.00;;;;;;5083458;28;20624;-85
2023/07/06 07:08:45;;;;;;;3.33;1.55;;;24.20;1.00;;;;;;5072606;28;20208;-83
2023/07/06 07:11:13;;;;;;;4.60;1.45;;;24.20;1.00;;;;;;5075592;28;20308;-84
2023/07/06 07:13:41;;;;;;;4.35;1.50;;;24.30;1.00;;;;;;5088465;28;20228;-84
2023/07/06 07:16:11;;;;;;;3.70;1.35;;;24.40;1.00;;;;;;5079604;28;20799;-84
2023/07/06 07:18:39;;;;;;;5.35;2.03;;;24.50;1.00;;;;;;5078953;28;20253;-82
2023/07/06 07:21:06;;;;;;;3.72;1.23;;;24.50;1.00;;;;;;5082392;28;20250;-84
2023/07/06 07:23:36;;;;;;;4.78;1.92;;;24.60;1.00;;;;;;5081809;28;20213;-84
2023/07/06 07:26:04;;;;;;;4.55;1.80;;;24.70;1.00;;;;;;5072945;28;20607;-83
2023/07/06 07:28:32;;;;;;;3.75;1.67;;;24.90;1.00;;;;;;5073538;28;20219;-85
2023/07/06 07:31:02;;;;;;;4.50;1.90;;;25.00;1.00;;;;;;5075612;28;20224;-82
2023/07/06 07:33:29;;;;;;;4.20;1.98;;;24.90;1.00;;;;;;5078074;28;20217;-82
2023/07/06 07:35:58;;;;;;;4.70;1.85;;;24.90;1.00;;;;;;5075195;28;20534;-84
2023/07/06 07:38:25;;;;;;;5.20;1.70;;;24.90;1.00;;;;;;5092963;28;20317;-82
2023/07/06 07:40:56;;;;;;;3.90;1.50;;;24.90;1.00;;;;;;5092741;28;20227;-82
2023/07/06 07:43:25;;;;;;;6.45;1.42;;;25.20;99.90;;;;;;5092754;28;20262;-84
2023/07/06 07:45:55;;;;;;;4.20;1.90;;;25.30;99.90;;;;;;5091479;28;20225;-83
2023/07/06 07:48:24;;;;;;;4.72;1.67;;;25.30;1.00;;;;;;5072732;28;20296;-83
2023/07/06 07:50:53;;;;;;;2.83;1.20;;;25.50;1.00;;;;;;5074924;28;20783;-81
2023/07/06 07:53:22;;;;;;;3.40;1.40;;;25.70;1.00;;;;;;5072081;28;20295;-86
2023/07/06 07:55:49;;;;;;;3.17;1.10;;;25.80;34.60;;;;;;5072572;28;20280;-82
2023/07/06 07:58:16;;;;;;;2.58;1.40;;;25.90;99.90;;;;;;5092113;28;20313;-81
2023/07/06 08:00:49;;;;;;;2.92;1.45;;;25.90;99.90;;;;;;5090372;28;20196;-81
2023/07/06 08:03:16;;;;;;;3.40;1.23;;;25.80;99.90;;;;;;5072524;28;20208;-83
2023/07/06 08:05:46;;;;;;;4.65;1.60;;;25.90;83.50;;;;;;5071797;28;20652;-83
2023/07/06 08:08:13;;;;;;;3.22;1.30;;;25.90;1.00;;;;;;5090048;28;20624;-81
2023/07/06 08:10:41;;;;;;;3.22;1.30;;;26.00;4.00;;;;;;5093280;28;20220;-82
2023/07/06 08:13:09;;;;;;;3.80;1.60;;;26.10;33.80;;;;;;5092092;28;20204;-81
2023/07/06 08:15:38;;;;;;;2.15;1.23;;;26.20;63.20;;;;;;5074848;28;20204;-80
2023/07/06 08:18:06;;;;;;;4.72;1.40;;;26.20;1.00;;;;;;5071959;28;20205;-80
2023/07/06 08:20:33;;;;;;;4.18;1.85;;;26.20;1.00;;;;;;5070838;28;20513;-79
2023/07/06 08:23:02;;;;;;;2.42;1.45;;;26.30;99.90;;;;;;5071592;28;20285;-79
2023/07/06 08:25:37;;;;;;;5.28;1.70;;;26.30;18.80;;;;;;5071750;28;20209;-80
2023/07/06 08:28:05;;;;;;;1.85;1.30;;;26.40;1.00;;;;;;5071199;28;20316;-78
2023/07/06 08:30:32;;;;;;;2.35;1.42;;;26.50;1.00;;;;;;5071624;28;20576;-80
2023/07/06 08:33:01;;;;;;;3.38;1.63;;;26.50;1.00;;;;;;5071944;28;20208;-79
2023/07/06 08:35:28;;;;;;;2.85;1.38;;;26.40;99.90;;;;;;5072407;28;20288;-80
2023/07/06 08:37:56;;;;;;;4.55;1.40;;;26.50;99.90;;;;;;5066071;28;20235;-82
2023/07/06 08:40:28;;;;;;;3.20;1.60;;;26.40;1.00;;;;;;5093842;28;20258;-81
2023/07/06 08:42:56;;;;;;;1.35;0.90;;;26.40;26.00;;;;;;5082579;28;20216;-82
2023/07/06 08:45:25;;;;;;;3.47;1.60;;;26.50;1.00;;;;;;5096322;28;20254;-82
2023/07/06 08:47:52;;;;;;;3.60;1.48;;;26.60;68.10;;;;;;5095303;28;20204;-82
2023/07/06 08:50:28;;;;;;;3.63;1.67;;;26.80;88.50;;;;;;5075745;28;20228;-80
2023/07/06 08:52:56;;;;;;;3.22;1.70;;;26.80;99.90;;;;;;5075341;28;20200;-81
2023/07/06 08:55:30;;;;;;;5.93;2.22;;;26.70;99.90;;;;;;5091619;28;20614;-81
2023/07/06 08:57:57;;;;;;;3.20;1.60;;;26.80;99.90;;;;;;5095865;28;20231;-81
2023/07/06 09:00:27;;;;;;;4.55;1.85;;;26.70;99.90;;;;;;5094435;28;20192;-81
2023/07/06 09:03:06;;;;;;;3.17;1.45;;;26.80;99.90;;;;;;5075410;28;20285;-82
2023/07/06 09:05:37;;;;;;;5.40;1.55;;;26.80;99.90;;;;;;5075282;28;20212;-81
2023/07/06 09:08:05;;;;;;;5.05;2.05;;;26.90;99.90;;;;;;5075810;28;20225;-81
2023/07/06 09:10:34;;;;;;;3.95;1.70;;;27.00;99.90;;;;;;5077388;28;20257;-79
2023/07/06 09:13:15;;;;;;;5.07;2.00;;;27.00;99.90;;;;;;5092140;28;20519;-82
2023/07/06 09:15:44;;;;;;;5.72;1.67;;;27.00;99.90;;;;;;5075603;28;20264;-81
2023/07/06 09:18:15;;;;;;;3.22;1.60;;;26.80;99.90;;;;;;5087679;28;20210;-82
2023/07/06 09:20:46;;;;;;;8.52;2.08;;;26.60;99.90;;;;;;5075873;28;20281;-83
2023/07/06 09:23:15;;;;;;;4.40;1.80;;;26.40;99.90;;;;;;5091519;28;20544;-79
2023/07/06 09:25:46;;;;;;;3.22;1.35;;;26.40;99.90;;;;;;5079709;28;20635;-80
2023/07/06 09:28:17;;;;;;;3.50;1.60;;;26.50;99.90;;;;;;5074172;28;20236;-80
2023/07/06 09:30:47;;;;;;;3.22;1.50;;;26.60;99.90;;;;;;5083534;28;20595;-80
2023/07/06 09:33:20;;;;;;;4.93;1.67;;;26.70;99.90;;;;;;5085489;28;20611;-81
2023/07/06 09:35:52;;;;;;;4.68;1.95;;;26.90;99.90;;;;;;5081311;28;20513;-81
2023/07/06 09:38:20;;;;;;;2.75;1.40;;;27.00;99.90;;;;;;5093314;28;20208;-82
2023/07/06 09:40:49;;;;;;;10.35;2.17;;;27.10;99.90;;;;;;5095055;28;20734;-80
2023/07/06 09:43:18;;;;;;;5.78;1.90;;;27.10;99.90;;;;;;5082137;28;20254;-84
2023/07/06 09:45:45;;;;;;;2.42;1.38;;;27.20;99.90;;;;;;5075083;28;20548;-84
2023/07/06 09:48:28;;;;;;;10.02;2.45;;;26.80;99.90;;;;;;5073103;28;20194;-80
2023/07/06 09:51:01;;;;;;;6.13;1.95;;;26.70;99.90;;;;;;5074846;28;20291;-81
2023/07/06 09:53:32;;;;;;;3.40;1.70;;;26.70;99.90;;;;;;5074757;28;20578;-83
2023/07/06 09:56:02;;;;;;;4.13;1.67;;;26.80;99.90;;;;;;5074625;28;20680;-81
2023/07/06 09:58:31;;;;;;;4.78;2.08;;;26.80;99.90;;;;;;5074189;28;20510;-81
2023/07/06 10:01:06;;;;;;;11.85;2.13;;;26.80;99.90;;;;;;5074588;28;20236;-79
2023/07/06 10:03:42;;;;;;;14.60;4.25;;;26.80;99.90;;;;;;5074603;28;20224;-79
2023/07/06 10:06:24;;;;;;;18.60;5.60;;;26.90;99.90;;;;;;5073730;28;20199;-78
2023/07/06 10:08:59;;;;;;;5.22;1.90;;;27.00;99.90;;;;;;5074334;28;20306;-78
2023/07/06 10:11:38;;;;;;;5.15;1.65;;;27.00;99.90;;;;;;5074441;28;20251;-80
2023/07/06 10:14:14;;;;;;;6.25;2.00;;;27.10;99.90;;;;;;5073890;28;20286;-79
2023/07/06 10:16:55;;;;;;;5.38;1.80;;;27.10;99.90;;;;;;5074276;28;20589;-80
2023/07/06 10:19:29;;;;;;;3.17;1.42;;;27.10;99.90;;;;;;5073001;28;20228;-79
2023/07/06 10:22:06;;;;;;;4.43;1.95;;;27.20;99.90;;;;;;5073988;28;20188;-82
2023/07/06 10:24:41;;;;;;;2.92;1.60;;;27.30;99.90;;;;;;5073897;28;20193;-81
2023/07/06 10:27:16;;;;;;;5.28;1.80;;;27.40;99.90;;;;;;5073787;28;20235;-78
2023/07/06 10:29:48;;;;;;;6.22;2.20;;;27.40;99.90;;;;;;5073999;28;20230;-78
2023/07/06 10:32:20;;;;;;;4.50;1.80;;;27.40;99.90;;;;;;5073689;28;20312;-80
2023/07/06 10:34:53;;;;;;;6.70;2.03;;;27.30;99.90;;;;;;5073098;28;20585;-79
2023/07/06 10:37:24;;;;;;;5.43;1.77;;;27.20;99.90;;;;;;5073803;28;20285;-80
2023/07/06 10:40:20;;;;;;;6.25;2.00;;;27.10;99.90;;;;;;5072980;28;20220;-79
2023/07/06 10:43:02;;;;;;;4.65;2.17;;;27.00;99.90;;;;;;5073846;28;20272;-81
2023/07/06 10:45:42;;;;;;;8.07;2.50;;;26.80;99.90;;;;;;5073397;28;20670;-80
2023/07/06 10:48:13;;;;;;;3.38;1.67;;;26.90;99.90;;;;;;5072775;28;20204;-79
2023/07/06 10:50:51;;;;;;;5.55;1.75;;;26.80;99.90;;;;;;5073648;28;20224;-82
2023/07/06 10:53:25;;;;;;;3.95;1.38;;;26.60;99.90;;;;;;5073536;28;20213;-79
2023/07/06 10:56:08;;;;;;;3.67;1.40;;;26.60;99.90;;;;;;5080949;28;20193;-80
2023/07/06 10:58:48;;;;;;;3.85;1.27;;;26.90;99.90;;;;;;5087062;28;20637;-78
2023/07/06 11:01:19;;;;;;;2.67;1.38;;;26.90;99.90;;;;;;5092626;28;20203;-79
2023/07/06 11:03:47;;;;;;;5.70;1.58;;;27.00;99.90;;;;;;5073415;28;20193;-80
2023/07/06 11:06:18;;;;;;;2.00;1.42;;;27.10;99.90;;;;;;5073776;28;20208;-81
2023/07/06 11:09:18;;;;;;;3.13;1.30;;;27.20;99.90;;;;;;5079729;28;20200;-81
2023/07/06 11:12:16;;;;;;;3.85;1.58;;;27.10;99.90;;;;;;4990881;28;20224;-79
2023/07/06 11:14:45;;;;;;;4.30;1.27;;;27.10;99.90;;;;;;4983651;28;20298;-80
2023/07/06 11:17:30;;;;;;;3.58;1.35;;;27.10;99.90;;;;;;5055077;28;20243;-79
2023/07/06 11:20:03;;;;;;;9.52;2.50;;;27.20;99.90;;;;;;5091736;28;20177;-79
2023/07/06 11:22:31;;;;;;;4.07;1.48;;;27.20;99.90;;;;;;5090392;28;20235;-79
2023/07/06 11:25:03;;;;;;;2.95;1.20;;;27.20;99.90;;;;;;5082302;28;20201;-79
2023/07/06 11:27:34;;;;;;;3.78;1.80;;;27.30;99.90;;;;;;5072640;28;20315;-79
2023/07/06 11:30:12;;;;;;;2.55;1.58;;;27.00;99.90;;;;;;5072326;28;20280;-80
2023/07/06 11:32:54;;;;;;;3.92;1.42;;;27.10;99.90;;;;;;5088763;28;20259;-79
2023/07/06 11:35:35;;;;;;;3.40;1.35;;;27.00;99.90;;;;;;5092050;28;20608;-79
2023/07/06 11:38:15;;;;;;;5.50;1.70;;;26.80;99.90;;;;;;5083776;28;20197;-78
2023/07/06 11:41:00;;;;;;;3.42;1.45;;;26.60;99.90;;;;;;5072805;28;20469;-81
2023/07/06 11:43:38;;;;;;;5.53;1.80;;;26.60;99.90;;;;;;5081074;28;20197;-84
2023/07/06 11:46:25;;;;;;;6.50;1.90;;;26.30;99.90;;;;;;5092420;28;20188;-81
2023/07/06 11:49:05;;;;;;;7.65;1.90;;;26.10;99.90;;;;;;5092339;28;20192;-80
2023/07/06 11:51:36;;;;;;;5.25;1.42;;;25.90;99.90;;;;;;5085248;28;20212;-80
2023/07/06 11:54:07;;;;;;;3.63;1.45;;;25.90;99.90;;;;;;5072671;28;20284;-81
2023/07/06 11:56:50;;;;;;;5.15;1.73;;;25.80;99.90;;;;;;5072790;28;20200;-79
2023/07/06 11:59:36;;;;;;;3.97;1.80;;;25.80;99.90;;;;;;5071953;28;20205;-79
2023/07/06 12:02:16;;;;;;;3.78;1.98;;;25.80;99.90;;;;;;5072570;28;20193;-82
2023/07/06 12:04:46;;;;;;;4.18;1.45;;;25.70;99.90;;;;;;5071887;28;20644;-81
2023/07/06 12:07:28;;;;;;;6.10;1.80;;;25.80;99.90;;;;;;5072357;28;20204;-80
2023/07/06 12:09:55;;;;;;;3.42;1.25;;;25.70;99.90;;;;;;5072386;28;20209;-81
2023/07/06 12:12:23;;;;;;;3.70;1.70;;;25.60;99.90;;;;;;5070602;28;20244;-81
2023/07/06 12:14:52;;;;;;;2.20;1.35;;;25.70;99.90;;;;;;5080055;28;20368;-81
2023/07/06 12:17:22;;;;;;;3.33;1.40;;;25.80;99.90;;;;;;5092202;28;20266;-80
2023/07/06 12:19:49;;;;;;;5.68;1.50;;;25.90;99.90;;;;;;5082323;28;20212;-78
2023/07/06 12:22:18;;;;;;;3.72;1.50;;;26.00;99.90;;;;;;5072853;28;20247;-79
2023/07/06 12:24:45;;;;;;;3.38;1.50;;;26.20;99.90;;;;;;5071821;28;20209;-83
2023/07/06 12:27:15;;;;;;;3.75;1.38;;;26.10;99.90;;;;;;5071631;28;20285;-81
2023/07/06 12:29:45;;;;;;;4.22;1.25;;;26.30;99.90;;;;;;5071876;28;20235;-81
2023/07/06 12:32:16;;;;;;;3.42;1.40;;;26.00;99.90;;;;;;5070961;28;20217;-80
2023/07/06 12:34:46;;;;;;;6.72;1.70;;;26.10;99.90;;;;;;5072120;28;20239;-83
2023/07/06 12:37:16;;;;;;;3.40;1.13;;;25.90;99.90;;;;;;5074284;28;20213;-80
2023/07/06 12:39:46;;;;;;;3.33;1.27;;;25.80;99.90;;;;;;5086594;28;20685;-81
2023/07/06 12:42:15;;;;;;;5.38;1.33;;;25.70;99.90;;;;;;5071663;28;20497;-78
2023/07/06 12:44:43;;;;;;;3.33;1.50;;;25.70;99.90;;;;;;5071777;28;20243;-81
2023/07/06 12:47:23;;;;;;;3.42;1.17;;;25.80;99.90;;;;;;5071669;28;20205;-81
2023/07/06 12:49:52;;;;;;;5.10;1.58;;;26.00;99.90;;;;;;5081228;28;20267;-85
2023/07/06 12:52:23;;;;;;;4.00;1.67;;;25.80;99.90;;;;;;5092163;28;20220;-81
2023/07/06 12:54:53;;;;;;;4.03;1.15;;;25.80;99.90;;;;;;5090846;28;20280;-82
2023/07/06 12:57:23;;;;;;;3.05;1.13;;;25.80;99.90;;;;;;5071601;28;20322;-82
2023/07/06 12:59:54;;;;;;;5.32;1.40;;;25.60;99.90;;;;;;5071440;28;20284;-81
2023/07/06 13:02:23;;;;;;;5.97;1.50;;;25.70;99.90;;;;;;5071099;28;20189;-81
2023/07/06 13:04:52;;;;;;;3.63;1.38;;;25.80;99.90;;;;;;5089312;28;20208;-81
2023/07/06 13:07:22;;;;;;;3.63;1.70;;;25.70;99.90;;;;;;5089512;28;20709;-80